Time;durP1;ratioP1;P1;durP2;ratioP2;P2;SDS_P1;SDS_P2;PMS_P1;PMS_P2;Temp;Humidity;BMP_temperature;BMP_pressure;BME280_temperature;BME280_humidity;BME280_pressure;Samples;Min_cycle;Max_cycle;Signal;HPM_P1;HPM_P2
2022/06/14 00:03:03;;;;;;;7.35;5.53;;;538.50;2406.40;;;;;;5070565;28;20082;-54
2022/06/14 00:05:29;;;;;;;6.22;5.10;;;538.50;2406.40;;;;;;5069319;28;20029;-61
2022/06/14 00:07:55;;;;;;;7.88;5.05;;;538.50;2406.40;;;;;;5069852;28;20032;-55
2022/06/14 00:10:21;;;;;;;5.47;4.95;;;538.40;2406.40;;;;;;5070029;28;20413;-62
2022/06/14 00:12:46;;;;;;;5.93;4.68;;;538.40;2406.40;;;;;;5069895;28;20017;-62
2022/06/14 00:15:12;;;;;;;6.72;4.75;;;538.40;2406.40;;;;;;5069835;28;20170;-55
2022/06/14 00:17:38;;;;;;;8.35;4.78;;;538.30;2406.40;;;;;;5069865;28;20031;-54
2022/06/14 00:20:05;;;;;;;5.82;4.68;;;538.20;2406.40;;;;;;5069992;28;20375;-58
2022/06/14 00:22:34;;;;;;;6.15;5.32;;;538.20;2406.40;;;;;;5070000;28;20021;-62
2022/06/14 00:24:59;;;;;;;6.93;4.72;;;538.20;2406.40;;;;;;5070146;28;20028;-56
2022/06/14 00:27:25;;;;;;;7.57;5.30;;;538.10;2406.40;;;;;;5069637;28;20549;-57
2022/06/14 00:29:51;;;;;;;6.43;5.05;;;538.10;2406.40;;;;;;5070037;28;20494;-54
2022/06/14 00:32:17;;;;;;;7.03;4.75;;;538.10;2406.40;;;;;;5069885;28;20025;-62
2022/06/14 00:34:42;;;;;;;7.38;5.63;;;538.10;2406.40;;;;;;5069787;28;20052;-55
2022/06/14 00:37:17;;;;;;;8.10;5.05;;;538.10;2406.40;;;;;;5069775;28;20025;-61
2022/06/14 00:39:43;;;;;;;6.18;4.55;;;538.10;2406.40;;;;;;5069862;28;20028;-55
2022/06/14 00:42:21;;;;;;;6.13;4.38;;;538.00;2406.40;;;;;;5069694;28;20029;-59
2022/06/14 00:45:29;;;;;;;5.88;4.88;;;538.10;2406.40;;;;;;5069428;28;20024;-55
2022/06/14 00:48:02;;;;;;;7.60;4.65;;;538.20;2406.40;;;;;;5069485;28;20789;-54
2022/06/14 00:50:34;;;;;;;6.22;4.78;;;538.30;2406.40;;;;;;5069690;28;20036;-62
2022/06/14 00:53:16;;;;;;;6.68;4.60;;;538.30;2406.40;;;;;;5069732;28;20035;-62
2022/06/14 00:56:04;;;;;;;5.40;4.53;;;538.40;2406.40;;;;;;5069570;28;20029;-58
2022/06/14 00:58:39;;;;;;;5.75;5.10;;;538.40;2406.40;;;;;;5068691;28;20056;-62
2022/06/14 01:01:09;;;;;;;6.30;4.72;;;538.40;2406.40;;;;;;5069652;28;20036;-54
2022/06/14 01:03:42;;;;;;;6.05;4.10;;;538.40;2406.40;;;;;;5069591;28;20020;-61
2022/06/14 01:06:30;;;;;;;4.88;4.30;;;538.40;2406.40;;;;;;5069371;28;20040;-61
2022/06/14 01:09:09;;;;;;;6.28;4.63;;;538.40;2406.40;;;;;;5069186;28;20028;-62
2022/06/14 01:11:49;;;;;;;5.18;3.80;;;538.40;2406.40;;;;;;5069424;28;20405;-58
2022/06/14 01:14:19;;;;;;;5.38;3.67;;;538.40;2406.40;;;;;;5069307;28;20024;-54
2022/06/14 01:16:45;;;;;;;6.60;4.00;;;538.50;2406.40;;;;;;5072106;28;20039;-55
2022/06/14 01:19:23;;;;;;;6.65;4.18;;;538.40;2406.40;;;;;;5073017;28;20024;-61
2022/06/14 01:21:52;;;;;;;4.70;3.80;;;538.50;2406.40;;;;;;5073052;28;20413;-61
2022/06/14 01:24:20;;;;;;;4.10;3.40;;;538.50;2406.40;;;;;;5072985;28;20031;-54
2022/06/14 01:26:47;;;;;;;5.85;3.40;;;538.50;2406.40;;;;;;5072304;28;20043;-53
2022/06/14 01:29:13;;;;;;;5.88;3.83;;;563.20;2432.00;;;;;;5072859;28;20056;-54
2022/06/14 01:31:39;;;;;;;5.80;3.90;;;563.20;2432.00;;;;;;5072741;28;20078;-55
2022/06/14 01:34:08;;;;;;;4.25;3.60;;;563.20;2432.00;;;;;;5072641;28;20028;-55
2022/06/14 01:36:38;;;;;;;6.95;3.65;;;563.20;2432.00;;;;;;5072744;28;20435;-55
2022/06/14 01:39:08;;;;;;;4.88;3.88;;;538.50;2406.40;;;;;;5072831;28;20031;-54
2022/06/14 01:42:18;;;;;;;5.90;3.67;;;538.50;2406.40;;;;;;5072550;28;20037;-54
2022/06/14 01:44:52;;;;;;;4.63;3.42;;;538.50;2406.40;;;;;;4971673;28;20049;-55
2022/06/14 01:47:36;;;;;;;4.95;3.83;;;538.40;2406.40;;;;;;4971557;28;20163;-54
2022/06/14 01:53:25;;;;;;;5.18;3.67;;;538.40;2406.40;;;;;;4971732;28;20046;-54
2022/06/14 01:56:05;;;;;;;7.18;4.90;;;538.30;2406.40;;;;;;4971562;28;20034;-54
2022/06/14 01:58:51;;;;;;;4.75;3.08;;;538.30;2406.40;;;;;;4971281;28;20038;-54
2022/06/14 02:01:47;;;;;;;4.57;3.45;;;538.20;2406.40;;;;;;4970945;28;20043;-54
2022/06/14 02:04:38;;;;;;;4.93;2.97;;;538.20;2406.40;;;;;;4971431;28;20042;-55
2022/06/14 02:07:07;;;;;;;5.40;3.15;;;538.00;2406.40;;;;;;4971320;28;20042;-54
2022/06/14 02:09:59;;;;;;;4.07;2.85;;;537.90;2406.40;;;;;;4971250;28;20030;-54
2022/06/14 02:12:49;;;;;;;5.43;3.25;;;537.90;2406.40;;;;;;4970941;28;20039;-54
2022/06/14 02:15:17;;;;;;;3.70;2.67;;;537.90;2406.40;;;;;;4970939;28;20405;-54
2022/06/14 02:18:10;;;;;;;5.03;3.17;;;537.90;2406.40;;;;;;4979825;28;20478;-55
2022/06/14 02:20:44;;;;;;;3.67;2.92;;;537.90;2406.40;;;;;;5071663;28;20104;-54
2022/06/14 02:23:10;;;;;;;4.30;2.63;;;537.90;2406.40;;;;;;5072095;28;20025;-54
2022/06/14 02:26:05;;;;;;;3.47;2.42;;;537.90;2406.40;;;;;;5071677;28;20444;-54
2022/06/14 02:28:39;;;;;;;4.97;2.90;;;537.70;2406.40;;;;;;5069021;28;20091;-54
2022/06/14 02:31:31;;;;;;;8.20;2.90;;;537.80;2406.40;;;;;;5071615;28;20090;-54
2022/06/14 02:34:02;;;;;;;4.72;3.00;;;537.70;2406.40;;;;;;5070844;28;20378;-54
2022/06/14 02:37:04;;;;;;;4.13;2.53;;;537.70;2406.40;;;;;;5071501;28;20017;-54
2022/06/14 02:39:38;;;;;;;3.20;2.42;;;537.60;2406.40;;;;;;4970779;28;20054;-55
2022/06/14 02:42:21;;;;;;;3.60;2.47;;;512.90;2380.80;;;;;;4970639;28;20038;-57
2022/06/14 02:44:56;;;;;;;4.72;2.75;;;512.90;2380.80;;;;;;4970335;28;20109;-54
2022/06/14 02:47:25;;;;;;;3.63;2.47;;;512.90;2380.80;;;;;;4970498;28;20085;-54
2022/06/14 02:50:06;;;;;;;3.53;2.35;;;512.80;2380.80;;;;;;4970748;28;20039;-54
2022/06/14 02:52:46;;;;;;;8.55;3.00;;;512.80;2380.80;;;;;;4970613;28;20027;-54
2022/06/14 02:55:21;;;;;;;4.10;3.08;;;512.60;2380.80;;;;;;4970361;28;20043;-54
2022/06/14 02:57:54;;;;;;;3.50;2.65;;;512.60;2380.80;;;;;;4969911;28;20031;-53
2022/06/14 03:00:32;;;;;;;5.53;2.80;;;512.80;2380.80;;;;;;4970419;28;20049;-54
2022/06/14 03:03:07;;;;;;;3.22;2.42;;;512.80;2380.80;;;;;;4970141;28;20027;-54
2022/06/14 03:05:39;;;;;;;3.70;2.67;;;512.80;2380.80;;;;;;4970116;28;20114;-54
2022/06/14 03:08:18;;;;;;;3.95;3.28;;;512.60;2380.80;;;;;;4970249;28;20102;-54
2022/06/14 03:11:05;;;;;;;3.17;2.50;;;512.70;2380.80;;;;;;4970055;28;20176;-54
2022/06/14 03:13:42;;;;;;;3.97;3.00;;;512.80;2380.80;;;;;;4970087;28;20114;-53
2022/06/14 03:16:19;;;;;;;4.38;2.80;;;512.60;2380.80;;;;;;5066622;28;20036;-54
2022/06/14 03:19:17;;;;;;;4.53;2.90;;;512.70;2380.80;;;;;;5070425;28;20020;-54
2022/06/14 03:21:51;;;;;;;5.65;3.17;;;512.60;2380.80;;;;;;4969901;28;20513;-63
2022/06/14 03:24:25;;;;;;;4.60;2.80;;;512.60;2380.80;;;;;;4969824;28;20035;-54
2022/06/14 03:27:14;;;;;;;4.93;2.88;;;512.60;2380.80;;;;;;4969519;28;20038;-54
2022/06/14 03:30:01;;;;;;;4.05;2.92;;;512.60;2380.80;;;;;;4970047;28;20038;-54
2022/06/14 03:32:46;;;;;;;3.90;2.63;;;512.50;2380.80;;;;;;4969695;28;20042;-54
2022/06/14 03:35:32;;;;;;;4.35;2.38;;;512.50;2380.80;;;;;;4969724;28;20162;-54
2022/06/14 03:38:04;;;;;;;3.80;2.95;;;512.50;2380.80;;;;;;4969528;28;20031;-54
2022/06/14 03:40:30;;;;;;;4.18;2.70;;;512.50;2380.80;;;;;;4969153;28;20508;-54
2022/06/14 03:42:56;;;;;;;3.72;2.60;;;512.50;2380.80;;;;;;4969377;28;20068;-54
2022/06/14 03:45:32;;;;;;;5.07;2.67;;;512.50;2380.80;;;;;;4969799;28;20050;-54
2022/06/14 03:47:58;;;;;;;6.13;2.95;;;512.60;2380.80;;;;;;4969391;28;20034;-53
2022/06/14 03:50:34;;;;;;;3.92;2.67;;;512.60;2380.80;;;;;;4969501;28;20043;-53
2022/06/14 03:53:22;;;;;;;5.00;3.03;;;512.60;2380.80;;;;;;4969440;28;20438;-63
2022/06/14 03:56:12;;;;;;;5.70;2.65;;;512.70;2380.80;;;;;;4969206;28;20042;-62
2022/06/14 03:58:58;;;;;;;3.75;2.80;;;512.70;2380.80;;;;;;5015951;28;20049;-53
2022/06/14 04:01:30;;;;;;;4.03;2.72;;;512.60;2380.80;;;;;;5070023;28;20378;-54
2022/06/14 04:04:28;;;;;;;4.00;2.63;;;512.70;2380.80;;;;;;5069961;28;20020;-54
2022/06/14 04:07:09;;;;;;;4.13;2.67;;;512.60;2380.80;;;;;;5069756;28;20032;-54
2022/06/14 04:09:57;;;;;;;5.88;2.42;;;512.80;2380.80;;;;;;5069821;28;20025;-54
2022/06/14 04:12:38;;;;;;;4.25;2.65;;;512.90;2380.80;;;;;;5052476;28;20167;-54
2022/06/14 04:15:22;;;;;;;4.10;2.42;;;512.90;2380.80;;;;;;5069836;28;20060;-54
2022/06/14 04:21:05;;;;;;;4.53;2.75;;;537.60;2406.40;;;;;;5069720;28;20027;-54
2022/06/14 04:23:43;;;;;;;6.53;2.80;;;537.70;2406.40;;;;;;5070004;28;20024;-61
2022/06/14 04:26:24;;;;;;;3.55;2.53;;;537.80;2406.40;;;;;;5069727;28;20097;-62
2022/06/14 04:29:14;;;;;;;6.35;2.70;;;537.90;2406.40;;;;;;5069893;28;20033;-57
2022/06/14 04:31:42;;;;;;;3.17;2.38;;;537.80;2406.40;;;;;;4969279;28;20138;-54
2022/06/14 04:34:26;;;;;;;3.58;2.40;;;537.70;2406.40;;;;;;4969016;28;20043;-54
2022/06/14 04:36:54;;;;;;;;;;;512.90;2380.80;;;;;;4969511;28;20489;-54
2022/06/14 04:39:39;;;;;;;3.17;2.20;;;512.90;2380.80;;;;;;4969112;28;20281;-61
2022/06/14 04:42:10;;;;;;;5.93;2.45;;;512.90;2380.80;;;;;;4968921;28;20059;-54
2022/06/14 04:44:52;;;;;;;3.13;2.00;;;512.90;2380.80;;;;;;4968773;28;20110;-55
2022/06/14 04:47:31;;;;;;;3.60;2.10;;;512.80;2380.80;;;;;;4968405;28;20046;-54
2022/06/14 04:50:04;;;;;;;3.30;2.72;;;512.70;2278.40;;;;;;4968964;28;20130;-54
2022/06/14 04:52:41;;;;;;;3.33;1.95;;;512.80;2304.00;;;;;;4973016;28;20504;-54
2022/06/14 04:55:14;;;;;;;4.07;2.35;;;512.90;2252.80;;;;;;4972519;28;20042;-54
2022/06/14 04:57:58;;;;;;;3.50;2.53;;;537.60;2201.60;;;;;;4972509;28;20058;-54
2022/06/14 05:00:29;;;;;;;4.18;2.22;;;537.80;2150.40;;;;;;4972514;28;20057;-53
2022/06/14 05:03:09;;;;;;;3.85;2.20;;;538.20;2124.80;;;;;;4972228;28;20067;-54
2022/06/14 05:05:51;;;;;;;3.50;2.47;;;563.20;2176.00;;;;;;4972315;28;20030;-55
2022/06/14 05:08:29;;;;;;;3.33;2.22;;;563.20;2201.60;;;;;;5002809;28;20041;-54
2022/06/14 05:11:10;;;;;;;3.45;1.98;;;563.50;2201.60;;;;;;5072905;28;20036;-54
2022/06/14 05:14:05;;;;;;;3.60;2.03;;;563.60;2201.60;;;;;;5073112;28;20028;-54
2022/06/14 05:16:45;;;;;;;3.20;2.08;;;588.80;2176.00;;;;;;5072973;28;20025;-54
2022/06/14 05:19:19;;;;;;;3.97;2.22;;;614.70;1996.80;;;;;;5072985;28;20042;-54
2022/06/14 05:21:48;;;;;;;3.25;2.08;;;614.80;1996.80;;;;;;5072844;28;20052;-54
2022/06/14 05:24:14;;;;;;;4.18;2.67;;;640.10;1920.00;;;;;;5072986;28;20059;-64
2022/06/14 05:26:58;;;;;;;4.55;2.55;;;666.00;1868.80;;;;;;5072812;28;20032;-60
2022/06/14 05:29:47;;;;;;;4.05;2.65;;;692.00;1689.60;;;;;;5073045;28;20032;-55
2022/06/14 05:32:52;;;;;;;6.47;2.85;;;691.90;1664.00;;;;;;5072856;28;20032;-54
2022/06/14 05:35:52;;;;;;;4.28;2.80;;;742.40;1587.20;;;;;;4971745;28;20041;-54
2022/06/14 05:38:41;;;;;;;3.28;2.53;;;717.60;1612.80;;;;;;4971688;28;20043;-54
2022/06/14 05:41:32;;;;;;;3.22;2.08;;;743.00;1561.60;;;;;;4971685;28;20031;-64
2022/06/14 05:44:06;;;;;;;4.22;2.50;;;716.90;1664.00;;;;;;4971623;28;20026;-59
2022/06/14 05:46:53;;;;;;;4.45;2.50;;;691.60;1664.00;;;;;;4971896;28;20370;-59
2022/06/14 05:49:29;;;;;;;3.00;2.22;;;691.60;1689.60;;;;;;4971935;28;20027;-60
2022/06/14 05:51:59;;;;;;;10.98;3.05;;;666.50;1715.20;;;;;;4971541;28;20039;-58
2022/06/14 05:54:33;;;;;;;4.05;2.53;;;640.90;1766.40;;;;;;4971534;28;20524;-58
2022/06/14 05:57:52;;;;;;;4.70;2.47;;;640.70;1792.00;;;;;;4971115;28;20182;-59
2022/06/14 06:00:32;;;;;;;3.65;3.03;;;640.40;1792.00;;;;;;4913818;29;20076;-58
2022/06/14 06:03:08;;;;;;;4.38;3.97;;;640.60;1817.60;;;;;;4913092;29;20032;-59
2022/06/14 06:05:51;;;;;;;5.18;4.45;;;793.70;1510.40;;;;;;4914046;29;20137;-59
2022/06/14 06:08:35;;;;;;;5.75;5.18;;;896.50;1228.80;;;;;;4913832;29;20064;-59
2022/06/14 06:11:13;;;;;;;4.35;3.20;;;973.30;1075.20;;;;;;4971830;28;20037;-59
2022/06/14 06:13:42;;;;;;;3.40;3.10;;;973.40;1049.60;;;;;;5010343;28;20026;-61
2022/06/14 06:16:16;;;;;;;3.17;2.83;;;922.00;1152.00;;;;;;5010067;28;20485;-59
2022/06/14 06:18:45;;;;;;;3.95;2.20;;;819.70;1280.00;;;;;;5010234;28;20034;-60
2022/06/14 06:21:34;;;;;;;3.40;2.40;;;768.30;1408.00;;;;;;5010139;28;20045;-59
2022/06/14 06:24:06;;;;;;;3.88;2.80;;;717.30;1484.80;;;;;;5010089;28;20227;-59
2022/06/14 06:26:36;;;;;;;3.67;2.40;;;691.90;1510.40;;;;;;5010143;28;20038;-60
2022/06/14 06:29:15;;;;;;;3.13;2.28;;;691.30;1561.60;;;;;;5009860;28;20093;-59
2022/06/14 06:31:42;;;;;;;4.90;2.47;;;666.20;1612.80;;;;;;5010172;28;20088;-59
2022/06/14 06:34:14;;;;;;;6.25;2.97;;;640.90;1638.40;;;;;;5009810;28;20118;-59
2022/06/14 06:36:59;;;;;;;6.97;2.80;;;640.70;1638.40;;;;;;5040289;28;20036;-58
2022/06/14 06:39:48;;;;;;;3.58;2.63;;;640.60;1664.00;;;;;;5071480;28;20099;-58
2022/06/14 06:42:23;;;;;;;4.90;2.33;;;640.50;1689.60;;;;;;5071411;28;20556;-60
2022/06/14 06:44:55;;;;;;;4.65;3.10;;;640.40;1689.60;;;;;;5071455;28;20376;-61
2022/06/14 06:47:58;;;;;;;4.07;2.55;;;640.20;1715.20;;;;;;5071645;28;20029;-61
2022/06/14 06:50:51;;;;;;;4.20;2.53;;;640.20;1715.20;;;;;;5055364;28;20035;-60
2022/06/14 06:53:18;;;;;;;4.45;2.42;;;615.30;1740.80;;;;;;5070866;28;20082;-60
2022/06/14 06:55:46;;;;;;;4.35;2.70;;;640.00;1740.80;;;;;;5071129;28;20202;-58
2022/06/14 06:58:32;;;;;;;4.25;2.55;;;640.10;1715.20;;;;;;5070901;28;20048;-58
2022/06/14 07:01:05;;;;;;;3.88;2.60;;;640.10;1689.60;;;;;;5070660;28;20033;-58
2022/06/14 07:03:47;;;;;;;4.50;2.20;;;640.10;1715.20;;;;;;5071194;28;20032;-58
2022/06/14 07:06:22;;;;;;;5.15;2.70;;;640.10;1715.20;;;;;;5071131;28;20032;-58
2022/06/14 07:09:01;;;;;;;4.25;2.67;;;640.00;1766.40;;;;;;5070789;28;20027;-58
2022/06/14 07:11:51;;;;;;;2.78;2.28;;;640.00;1766.40;;;;;;5070642;28;20024;-58
2022/06/14 07:14:36;;;;;;;4.55;2.75;;;640.20;1740.80;;;;;;5069944;28;20075;-60
2022/06/14 07:17:19;;;;;;;5.03;2.53;;;615.30;1792.00;;;;;;5071047;28;20052;-58
2022/06/14 07:19:57;;;;;;;4.15;2.20;;;640.00;1766.40;;;;;;5070544;28;20024;-58
2022/06/14 07:22:28;;;;;;;2.70;2.03;;;615.10;1792.00;;;;;;5070961;28;20558;-61
2022/06/14 07:24:54;;;;;;;3.40;2.30;;;615.10;1792.00;;;;;;5070487;28;20044;-60
2022/06/14 07:27:24;;;;;;;3.20;2.15;;;614.80;1817.60;;;;;;5068581;28;20044;-59
2022/06/14 07:30:13;;;;;;;3.00;2.40;;;614.90;1817.60;;;;;;5069243;28;20035;-59
2022/06/14 07:32:53;;;;;;;4.40;2.28;;;640.10;1792.00;;;;;;5070535;28;20031;-58
2022/06/14 07:35:26;;;;;;;5.43;2.60;;;640.00;1766.40;;;;;;5070335;28;20441;-59
2022/06/14 07:38:18;;;;;;;4.28;2.63;;;640.30;1740.80;;;;;;5070604;28;20470;-58
2022/06/14 07:40:55;;;;;;;3.22;2.42;;;691.20;1664.00;;;;;;5070291;28;20045;-59
2022/06/14 07:43:31;;;;;;;3.75;2.30;;;665.90;1689.60;;;;;;5070349;28;20048;-59
2022/06/14 07:46:03;;;;;;;3.30;2.22;;;666.20;1689.60;;;;;;5070262;28;20037;-59
2022/06/14 07:48:37;;;;;;;3.35;2.45;;;665.60;1715.20;;;;;;5070098;28;20024;-58
2022/06/14 07:51:15;;;;;;;3.75;2.38;;;640.90;1689.60;;;;;;5070209;28;20111;-58
2022/06/14 07:53:58;;;;;;;4.00;3.05;;;640.40;1740.80;;;;;;5070216;28;20107;-59
2022/06/14 07:56:30;;;;;;;3.33;2.17;;;640.30;1766.40;;;;;;5070088;28;20021;-58
2022/06/14 07:59:02;;;;;;;4.57;2.35;;;615.30;1792.00;;;;;;5069939;28;20582;-61
2022/06/14 08:01:57;;;;;;;3.53;2.22;;;614.80;1843.20;;;;;;5069888;28;20048;-58
2022/06/14 08:04:33;;;;;;;2.83;1.90;;;614.80;1843.20;;;;;;5070147;28;20048;-58
2022/06/14 08:07:15;;;;;;;3.67;2.28;;;614.60;1868.80;;;;;;5069765;28;20514;-60
2022/06/14 08:09:57;;;;;;;4.68;2.58;;;589.70;1843.20;;;;;;5070143;28;20090;-60
2022/06/14 08:12:32;;;;;;;5.57;2.30;;;589.20;1868.80;;;;;;5070145;28;20024;-58
2022/06/14 08:15:06;;;;;;;2.60;1.92;;;589.10;1868.80;;;;;;5069762;28;20417;-59
2022/06/14 08:17:41;;;;;;;4.57;2.20;;;564.10;1894.40;;;;;;5070123;28;20377;-58
2022/06/14 08:20:09;;;;;;;3.40;2.15;;;564.10;1945.60;;;;;;5070034;28;20020;-60
2022/06/14 08:22:45;;;;;;;3.05;2.15;;;563.90;1945.60;;;;;;5069900;28;20043;-60
2022/06/14 08:25:28;;;;;;;3.40;2.40;;;588.80;1894.40;;;;;;5070564;28;20044;-61
2022/06/14 08:28:08;;;;;;;4.57;2.38;;;589.00;1894.40;;;;;;5074176;28;20127;-58
2022/06/14 08:30:39;;;;;;;4.72;2.35;;;589.20;1868.80;;;;;;5074063;28;20818;-60
2022/06/14 08:33:15;;;;;;;4.45;2.22;;;589.50;1817.60;;;;;;5073465;28;20518;-60
2022/06/14 08:35:54;;;;;;;4.75;2.80;;;589.70;1843.20;;;;;;5073797;28;20020;-60
2022/06/14 08:38:35;;;;;;;3.47;2.40;;;614.70;1792.00;;;;;;5073881;28;20028;-61
2022/06/14 08:41:10;;;;;;;3.80;2.05;;;615.00;1792.00;;;;;;5073681;28;20024;-61
2022/06/14 08:44:12;;;;;;;6.10;2.72;;;640.20;1766.40;;;;;;5073750;28;20046;-58
2022/06/14 08:47:01;;;;;;;3.25;2.05;;;640.40;1740.80;;;;;;4972711;28;20134;-58
2022/06/14 08:50:03;;;;;;;4.85;2.28;;;640.20;1766.40;;;;;;4956301;28;20114;-60
2022/06/14 08:52:29;;;;;;;4.60;2.38;;;640.20;1740.80;;;;;;4986991;28;20030;-58
2022/06/14 08:55:31;;;;;;;2.95;2.17;;;640.10;1715.20;;;;;;4990551;28;20026;-59
2022/06/14 08:58:24;;;;;;;3.28;2.00;;;615.30;1740.80;;;;;;4987483;28;20022;-58
2022/06/14 09:01:18;;;;;;;4.13;2.20;;;615.30;1689.60;;;;;;4989693;28;20038;-60
2022/06/14 09:04:02;;;;;;;3.35;2.05;;;615.30;1740.80;;;;;;4990334;28;20487;-59
2022/06/14 09:06:43;;;;;;;2.60;2.05;;;615.30;1715.20;;;;;;4988884;28;20038;-59
2022/06/14 09:09:43;;;;;;;4.07;2.00;;;615.00;1715.20;;;;;;4990037;28;20084;-59
2022/06/14 09:12:37;;;;;;;2.60;2.08;;;614.90;1740.80;;;;;;4990263;28;20113;-57
2022/06/14 09:15:31;;;;;;;3.90;2.13;;;615.00;1689.60;;;;;;4989403;28;20117;-57
2022/06/14 09:18:10;;;;;;;2.90;2.25;;;615.00;1740.80;;;;;;4980959;28;20019;-59
2022/06/14 09:20:54;;;;;;;3.08;2.00;;;640.10;1689.60;;;;;;4988365;28;20031;-61
2022/06/14 09:23:41;;;;;;;3.47;2.00;;;640.20;1664.00;;;;;;5066103;28;20457;-58
2022/06/14 09:26:07;;;;;;;3.17;2.17;;;640.40;1715.20;;;;;;5071211;28;20075;-61
2022/06/14 09:28:54;;;;;;;3.13;2.30;;;640.50;1664.00;;;;;;5071426;28;20471;-61
2022/06/14 09:31:32;;;;;;;3.40;2.38;;;640.60;1664.00;;;;;;5070261;28;20028;-61
2022/06/14 09:34:15;;;;;;;5.15;2.40;;;640.80;1664.00;;;;;;5069591;28;20028;-58
2022/06/14 09:36:42;;;;;;;;;;;640.70;1664.00;;;;;;5069420;28;20024;-58
2022/06/14 09:39:16;;;;;;;3.03;2.00;;;640.70;1638.40;;;;;;5070975;28;19916;-58
2022/06/14 09:42:06;;;;;;;2.72;2.13;;;640.50;1638.40;;;;;;5071114;28;20056;-59
2022/06/14 09:44:53;;;;;;;3.63;2.00;;;640.40;1638.40;;;;;;5068999;28;20017;-58
2022/06/14 09:47:41;;;;;;;3.00;2.20;;;640.40;1664.00;;;;;;5069604;28;20032;-56
2022/06/14 09:50:35;;;;;;;4.70;2.60;;;640.80;1612.80;;;;;;5070455;28;20082;-61
2022/06/14 09:53:34;;;;;;;4.72;2.85;;;665.80;1638.40;;;;;;5069941;28;20047;-58
2022/06/14 09:56:21;;;;;;;3.70;2.70;;;665.70;1664.00;;;;;;5069668;28;20020;-61
2022/06/14 09:59:25;;;;;;;7.82;2.05;;;665.90;1664.00;;;;;;5070128;28;20051;-58
2022/06/14 10:01:57;;;;;;;3.00;2.30;;;666.00;1664.00;;;;;;5070918;28;20035;-59
2022/06/14 10:04:43;;;;;;;3.85;2.33;;;666.30;1638.40;;;;;;5070782;28;20115;-60
2022/06/14 10:07:46;;;;;;;2.97;2.17;;;666.30;1664.00;;;;;;5067935;28;20382;-61
2022/06/14 10:10:21;;;;;;;4.57;2.58;;;666.20;1664.00;;;;;;5068374;28;20511;-59
2022/06/14 10:12:58;;;;;;;2.78;2.10;;;666.10;1664.00;;;;;;5071459;28;20455;-59
2022/06/14 10:15:24;;;;;;;6.93;2.78;;;665.60;1638.40;;;;;;5072069;28;20048;-58
2022/06/14 10:18:22;;;;;;;3.00;2.25;;;665.90;1740.80;;;;;;5071869;28;20067;-58
2022/06/14 10:21:02;;;;;;;2.88;2.03;;;665.90;1664.00;;;;;;5071579;28;20475;-58
2022/06/14 10:23:31;;;;;;;3.78;2.60;;;665.80;1664.00;;;;;;5071563;28;20025;-59
2022/06/14 10:29:45;;;;;;;3.10;2.15;;;665.70;1689.60;;;;;;5029212;28;20041;-58
2022/06/14 10:32:38;;;;;;;3.15;2.20;;;665.70;1664.00;;;;;;4951620;29;20050;-59
2022/06/14 10:35:24;;;;;;;3.63;3.17;;;665.70;1638.40;;;;;;4951557;29;20062;-61
2022/06/14 10:38:40;;;;;;;3.17;2.00;;;640.80;1638.40;;;;;;4951410;29;20031;-58
2022/06/14 10:41:20;;;;;;;4.60;2.72;;;640.70;1664.00;;;;;;4951170;29;20036;-58
2022/06/14 10:44:13;;;;;;;6.75;2.60;;;640.70;1664.00;;;;;;4951095;29;20035;-59
2022/06/14 10:47:01;;;;;;;4.75;2.50;;;640.90;1612.80;;;;;;4875362;29;20052;-58
2022/06/14 10:49:44;;;;;;;4.00;2.25;;;640.90;1638.40;;;;;;4874833;29;20461;-60
2022/06/14 10:52:30;;;;;;;4.63;2.47;;;640.90;1638.40;;;;;;4875529;29;20045;-59
2022/06/14 10:55:22;;;;;;;9.32;3.30;;;666.00;1612.80;;;;;;4875146;29;20037;-60
2022/06/14 10:57:48;;;;;;;3.28;2.65;;;666.50;1638.40;;;;;;4874952;29;20073;-58
2022/06/14 11:00:45;;;;;;;3.33;2.50;;;691.70;1510.40;;;;;;4875337;29;20077;-61
2022/06/14 11:03:30;;;;;;;4.40;2.40;;;691.90;1612.80;;;;;;4856580;29;20044;-59
2022/06/14 11:06:18;;;;;;;3.88;2.47;;;691.80;1561.60;;;;;;4865252;29;20082;-59
2022/06/14 11:09:08;;;;;;;3.30;2.33;;;691.70;1561.60;;;;;;4916729;29;20110;-59
2022/06/14 11:11:53;;;;;;;4.07;2.55;;;691.80;1536.00;;;;;;4950726;29;20070;-59
2022/06/14 11:14:45;;;;;;;8.32;2.63;;;691.90;1536.00;;;;;;4950516;29;20494;-59
2022/06/14 11:17:26;;;;;;;3.97;2.80;;;692.10;1510.40;;;;;;4950836;29;20050;-59
2022/06/14 11:19:58;;;;;;;3.53;2.20;;;716.90;1587.20;;;;;;4950632;29;20324;-59
2022/06/14 11:22:39;;;;;;;3.95;2.50;;;692.10;1459.20;;;;;;4950668;28;20027;-59
2022/06/14 11:25:17;;;;;;;5.53;2.72;;;691.70;1459.20;;;;;;5028471;28;20128;-59
2022/06/14 11:27:51;;;;;;;4.35;2.55;;;691.70;1484.80;;;;;;5028355;28;20092;-60
2022/06/14 11:30:30;;;;;;;5.10;2.78;;;691.60;1484.80;;;;;;5028444;28;20033;-59
2022/06/14 11:33:16;;;;;;;3.60;2.60;;;691.20;1484.80;;;;;;5028545;28;20041;-59
2022/06/14 11:36:04;;;;;;;7.35;2.72;;;666.40;1484.80;;;;;;5018322;28;20057;-59
2022/06/14 11:38:53;;;;;;;4.80;2.90;;;666.30;1536.00;;;;;;5028723;28;20057;-59
2022/06/14 11:41:23;;;;;;;4.97;2.63;;;691.30;1510.40;;;;;;5070302;28;20054;-59
2022/06/14 11:43:58;;;;;;;5.15;2.30;;;666.50;1484.80;;;;;;5070637;28;20115;-59
2022/06/14 11:46:31;;;;;;;3.10;2.50;;;691.30;1536.00;;;;;;5070498;28;20394;-60
2022/06/14 11:49:22;;;;;;;3.42;2.65;;;691.30;1510.40;;;;;;5070299;28;20091;-60
2022/06/14 11:52:10;;;;;;;3.45;2.40;;;691.20;1510.40;;;;;;5070147;28;20033;-58
2022/06/14 11:55:06;;;;;;;3.90;2.65;;;691.20;1484.80;;;;;;5067696;28;20070;-58
2022/06/14 11:57:58;;;;;;;5.40;2.28;;;666.20;1484.80;;;;;;5068573;28;20082;-61
2022/06/14 12:00:43;;;;;;;4.65;2.50;;;691.20;1484.80;;;;;;5067890;28;20054;-59
2022/06/14 12:03:24;;;;;;;5.25;2.80;;;691.30;1510.40;;;;;;5068474;28;20032;-60
2022/06/14 12:06:20;;;;;;;3.40;2.55;;;691.20;1459.20;;;;;;5068312;28;20509;-59
2022/06/14 12:09:31;;;;;;;2.90;2.20;;;691.20;1510.40;;;;;;5068482;28;20028;-59
2022/06/14 12:12:25;;;;;;;4.40;2.45;;;666.50;1510.40;;;;;;5068296;28;20100;-60
2022/06/14 12:15:03;;;;;;;5.65;2.72;;;666.30;1536.00;;;;;;5068523;28;20024;-59
2022/06/14 12:17:36;;;;;;;3.70;2.72;;;666.20;1510.40;;;;;;5068183;28;20364;-59
2022/06/14 12:20:04;;;;;;;3.10;2.28;;;666.20;1536.00;;;;;;5067971;28;20033;-61
2022/06/14 12:23:22;;;;;;;5.40;2.70;;;666.30;1484.80;;;;;;5068343;28;20039;-60
2022/06/14 12:29:04;;;;;;;6.47;3.58;;;691.20;1536.00;;;;;;4967201;28;20050;-58
2022/06/14 12:32:14;;;;;;;6.53;3.33;;;691.30;1459.20;;;;;;4967015;28;20026;-60
2022/06/14 12:34:54;;;;;;;3.40;2.33;;;691.50;1459.20;;;;;;4890744;29;20483;-58
2022/06/14 12:37:43;;;;;;;3.00;2.25;;;691.60;1510.40;;;;;;4891098;29;20119;-59
2022/06/14 12:40:18;;;;;;;3.20;2.25;;;691.70;1484.80;;;;;;4890732;29;20062;-58
2022/06/14 12:42:58;;;;;;;4.53;2.55;;;666.50;1408.00;;;;;;4890875;29;20041;-60
2022/06/14 12:45:27;;;;;;;3.28;2.45;;;666.40;1433.60;;;;;;4890434;29;20049;-61
2022/06/14 12:48:11;;;;;;;3.80;2.50;;;691.20;1459.20;;;;;;4890914;29;20036;-59
2022/06/14 12:50:49;;;;;;;3.10;2.22;;;691.50;1536.00;;;;;;4890648;29;20069;-59
2022/06/14 12:53:30;;;;;;;6.32;2.97;;;691.80;1484.80;;;;;;4890535;29;20035;-60
2022/06/14 12:56:01;;;;;;;4.93;2.90;;;691.80;1459.20;;;;;;4890583;29;20037;-59
2022/06/14 12:58:39;;;;;;;4.78;2.55;;;692.00;1459.20;;;;;;4889900;29;20131;-60
2022/06/14 13:01:15;;;;;;;4.53;2.25;;;691.60;1382.40;;;;;;4917986;28;20585;-58
2022/06/14 13:03:41;;;;;;;3.92;2.17;;;691.70;1382.40;;;;;;4967053;28;20035;-60
2022/06/14 13:07:06;;;;;;;3.45;2.40;;;691.60;1433.60;;;;;;4966740;28;20712;-59
2022/06/14 13:09:53;;;;;;;3.83;2.40;;;691.40;1459.20;;;;;;4985108;28;20041;-59
2022/06/14 13:12:43;;;;;;;6.53;2.55;;;691.40;1459.20;;;;;;5067189;28;20027;-59
2022/06/14 13:15:16;;;;;;;3.53;2.42;;;691.30;1459.20;;;;;;5069022;28;20020;-60
2022/06/14 13:18:11;;;;;;;4.15;2.63;;;691.30;1433.60;;;;;;5069021;28;20111;-61
2022/06/14 13:20:57;;;;;;;5.60;2.97;;;666.50;1433.60;;;;;;5068701;28;20028;-59
2022/06/14 13:23:44;;;;;;;4.15;2.42;;;666.50;1459.20;;;;;;5069025;28;20104;-60
2022/06/14 13:26:31;;;;;;;7.50;2.55;;;691.20;1484.80;;;;;;5068124;28;20049;-60
2022/06/14 13:29:11;;;;;;;4.05;2.70;;;666.50;1408.00;;;;;;5068576;28;20040;-58
2022/06/14 13:32:08;;;;;;;4.93;2.65;;;666.40;1408.00;;;;;;5068768;28;20025;-59
2022/06/14 13:34:39;;;;;;;4.18;2.70;;;666.50;1408.00;;;;;;5038497;28;20044;-60
2022/06/14 13:37:23;;;;;;;3.42;2.28;;;666.30;1459.20;;;;;;5068413;28;20035;-60
2022/06/14 13:39:55;;;;;;;3.75;2.63;;;666.50;1433.60;;;;;;5068208;28;20673;-59